sensor_id;sensor_type;location;lat;lon;timestamp;pressure;altitude;pressure_sealevel;temperature;humidity
9462;BME280;4769;42.660;23.262;2023-02-21T00:02:37;94358.06;;;10.26;49.64
9462;BME280;4769;42.660;23.262;2023-02-21T00:05:21;94351.97;;;10.48;48.85
9462;BME280;4769;42.660;23.262;2023-02-21T00:08:05;94363.41;;;10.54;48.98
9462;BME280;4769;42.660;23.262;2023-02-21T00:10:49;94358.44;;;9.60;51.46
9462;BME280;4769;42.660;23.262;2023-02-21T00:13:36;94341.88;;;9.19;53.13
9462;BME280;4769;42.660;23.262;2023-02-21T00:16:20;94346.75;;;9.45;52.64
9462;BME280;4769;42.660;23.262;2023-02-21T00:19:04;94365.19;;;9.45;52.25
9462;BME280;4769;42.660;23.262;2023-02-21T00:21:49;94342.88;;;9.70;52.11
9462;BME280;4769;42.660;23.262;2023-02-21T00:24:33;94359.00;;;9.51;52.03
9462;BME280;4769;42.660;23.262;2023-02-21T00:27:18;94338.94;;;9.27;53.53
9462;BME280;4769;42.660;23.262;2023-02-21T00:30:03;94350.78;;;9.70;51.99
9462;BME280;4769;42.660;23.262;2023-02-21T00:32:48;94340.13;;;10.00;50.56
9462;BME280;4769;42.660;23.262;2023-02-21T00:35:32;94319.63;;;9.56;52.31
9462;BME280;4769;42.660;23.262;2023-02-21T00:38:15;94326.38;;;9.63;52.32
9462;BME280;4769;42.660;23.262;2023-02-21T00:40:59;94338.03;;;9.33;52.92
9462;BME280;4769;42.660;23.262;2023-02-21T00:43:43;94338.28;;;9.89;51.25
9462;BME280;4769;42.660;23.262;2023-02-21T00:46:29;94329.91;;;9.92;50.84
9462;BME280;4769;42.660;23.262;2023-02-21T00:49:13;94329.91;;;10.15;50.14
9462;BME280;4769;42.660;23.262;2023-02-21T00:51:58;94323.59;;;10.27;49.72
9462;BME280;4769;42.660;23.262;2023-02-21T00:54:42;94318.97;;;10.46;48.95
9462;BME280;4769;42.660;23.262;2023-02-21T00:57:26;94319.34;;;10.26;49.86
9462;BME280;4769;42.660;23.262;2023-02-21T01:00:16;94318.66;;;10.31;49.68
9462;BME280;4769;42.660;23.262;2023-02-21T01:03:02;94317.91;;;9.96;52.46
9462;BME280;4769;42.660;23.262;2023-02-21T01:05:47;94315.16;;;9.45;54.98
9462;BME280;4769;42.660;23.262;2023-02-21T01:08:31;94305.69;;;9.44;53.01
9462;BME280;4769;42.660;23.262;2023-02-21T01:11:16;94306.78;;;9.82;51.31
9462;BME280;4769;42.660;23.262;2023-02-21T01:14:00;94290.53;;;9.97;50.95
9462;BME280;4769;42.660;23.262;2023-02-21T01:16:45;94279.50;;;10.23;50.30
9462;BME280;4769;42.660;23.262;2023-02-21T01:19:31;94279.84;;;10.26;49.89
9462;BME280;4769;42.660;23.262;2023-02-21T01:22:15;94265.75;;;10.21;49.97
9462;BME280;4769;42.660;23.262;2023-02-21T01:25:00;94263.75;;;10.39;49.20
9462;BME280;4769;42.660;23.262;2023-02-21T01:27:44;94275.81;;;10.24;49.68
9462;BME280;4769;42.660;23.262;2023-02-21T01:30:28;94272.78;;;10.43;49.12
9462;BME280;4769;42.660;23.262;2023-02-21T01:33:12;94267.06;;;10.35;49.33
9462;BME280;4769;42.660;23.262;2023-02-21T01:35:57;94265.06;;;10.53;48.58
9462;BME280;4769;42.660;23.262;2023-02-21T01:38:41;94274.16;;;10.46;48.88
9462;BME280;4769;42.660;23.262;2023-02-21T01:41:26;94262.47;;;10.14;51.51
9462;BME280;4769;42.660;23.262;2023-02-21T01:44:31;94281.84;;;9.85;51.73
9462;BME280;4769;42.660;23.262;2023-02-21T01:47:16;94243.25;;;9.79;51.60
9462;BME280;4769;42.660;23.262;2023-02-21T01:50:04;94258.53;;;9.54;53.71
9462;BME280;4769;42.660;23.262;2023-02-21T01:52:50;94264.34;;;9.21;56.02
9462;BME280;4769;42.660;23.262;2023-02-21T01:55:37;94261.09;;;8.85;57.51
9462;BME280;4769;42.660;23.262;2023-02-21T01:58:24;94253.19;;;8.32;59.85
9462;BME280;4769;42.660;23.262;2023-02-21T02:01:12;94241.84;;;8.02;61.50
9462;BME280;4769;42.660;23.262;2023-02-21T02:04:00;94259.50;;;7.77;62.44
9462;BME280;4769;42.660;23.262;2023-02-21T02:06:44;94252.88;;;7.57;63.70
9462;BME280;4769;42.660;23.262;2023-02-21T02:09:30;94248.50;;;7.51;63.65
9462;BME280;4769;42.660;23.262;2023-02-21T02:12:26;94244.28;;;7.68;63.87
9462;BME280;4769;42.660;23.262;2023-02-21T02:18:20;94203.13;;;7.80;62.30
9462;BME280;4769;42.660;23.262;2023-02-21T02:24:31;94235.09;;;7.59;63.83
9462;BME280;4769;42.660;23.262;2023-02-21T02:27:33;94221.47;;;7.68;64.20
9462;BME280;4769;42.660;23.262;2023-02-21T02:33:28;94217.16;;;7.38;65.00
9462;BME280;4769;42.660;23.262;2023-02-21T02:36:02;94220.81;;;7.55;64.69
9462;BME280;4769;42.660;23.262;2023-02-21T02:38:35;94219.00;;;7.73;62.54
9462;BME280;4769;42.660;23.262;2023-02-21T02:41:11;94236.75;;;7.35;64.79
9462;BME280;4769;42.660;23.262;2023-02-21T02:43:43;94222.56;;;7.25;65.83
9462;BME280;4769;42.660;23.262;2023-02-21T02:46:19;94214.97;;;6.92;65.90
9462;BME280;4769;42.660;23.262;2023-02-21T02:48:52;94210.81;;;6.85;67.43
9462;BME280;4769;42.660;23.262;2023-02-21T02:51:22;94217.66;;;7.10;66.48
9462;BME280;4769;42.660;23.262;2023-02-21T02:53:51;94230.47;;;7.18;66.24
9462;BME280;4769;42.660;23.262;2023-02-21T02:56:17;94216.63;;;7.11;66.45
9462;BME280;4769;42.660;23.262;2023-02-21T02:58:50;94228.91;;;6.93;67.30
9462;BME280;4769;42.660;23.262;2023-02-21T03:01:45;94218.72;;;7.03;67.02
9462;BME280;4769;42.660;23.262;2023-02-21T03:04:37;94225.38;;;7.23;66.14
9462;BME280;4769;42.660;23.262;2023-02-21T03:07:16;94217.84;;;7.09;66.94
9462;BME280;4769;42.660;23.262;2023-02-21T03:09:53;94218.22;;;6.94;67.22
9462;BME280;4769;42.660;23.262;2023-02-21T03:12:32;94211.91;;;7.38;64.05
9462;BME280;4769;42.660;23.262;2023-02-21T03:15:04;94210.31;;;8.61;58.78
9462;BME280;4769;42.660;23.262;2023-02-21T03:17:37;94191.59;;;8.92;56.73
9462;BME280;4769;42.660;23.262;2023-02-21T03:20:06;94213.19;;;8.60;58.59
9462;BME280;4769;42.660;23.262;2023-02-21T03:22:37;94198.34;;;7.77;62.83
9462;BME280;4769;42.660;23.262;2023-02-21T03:25:04;94215.81;;;8.01;61.76
9462;BME280;4769;42.660;23.262;2023-02-21T03:27:32;94216.63;;;7.83;63.01
9462;BME280;4769;42.660;23.262;2023-02-21T03:30:03;94205.88;;;7.73;62.14
9462;BME280;4769;42.660;23.262;2023-02-21T03:32:35;94202.63;;;8.19;60.57
9462;BME280;4769;42.660;23.262;2023-02-21T03:35:03;94193.06;;;8.65;57.55
9462;BME280;4769;42.660;23.262;2023-02-21T03:37:32;94197.66;;;8.81;56.86
9462;BME280;4769;42.660;23.262;2023-02-21T03:40:02;94193.31;;;8.87;57.50
9462;BME280;4769;42.660;23.262;2023-02-21T03:42:29;94203.47;;;8.72;57.07
9462;BME280;4769;42.660;23.262;2023-02-21T03:44:55;94218.25;;;8.96;55.58
9462;BME280;4769;42.660;23.262;2023-02-21T03:47:22;94187.84;;;9.11;54.44
9462;BME280;4769;42.660;23.262;2023-02-21T03:49:49;94212.22;;;9.30;54.00
9462;BME280;4769;42.660;23.262;2023-02-21T03:52:16;94227.28;;;9.11;54.72
9462;BME280;4769;42.660;23.262;2023-02-21T03:54:43;94211.72;;;9.21;54.07
9462;BME280;4769;42.660;23.262;2023-02-21T03:57:11;94204.00;;;9.66;52.39
9462;BME280;4769;42.660;23.262;2023-02-21T03:59:38;94186.00;;;9.86;51.46
9462;BME280;4769;42.660;23.262;2023-02-21T04:02:05;94203.47;;;10.03;50.75
9462;BME280;4769;42.660;23.262;2023-02-21T04:04:31;94238.44;;;9.99;50.62
9462;BME280;4769;42.660;23.262;2023-02-21T04:06:58;94211.47;;;9.69;51.95
9462;BME280;4769;42.660;23.262;2023-02-21T04:09:25;94193.75;;;9.64;52.11
9462;BME280;4769;42.660;23.262;2023-02-21T04:11:52;94208.28;;;9.67;51.99
9462;BME280;4769;42.660;23.262;2023-02-21T04:14:20;94233.22;;;9.64;51.89
9462;BME280;4769;42.660;23.262;2023-02-21T04:16:47;94215.03;;;9.63;51.85
9462;BME280;4769;42.660;23.262;2023-02-21T04:19:14;94215.38;;;9.55;52.55
9462;BME280;4769;42.660;23.262;2023-02-21T04:21:40;94211.81;;;9.49;52.39
9462;BME280;4769;42.660;23.262;2023-02-21T04:24:07;94231.47;;;9.70;51.87
9462;BME280;4769;42.660;23.262;2023-02-21T04:26:34;94218.34;;;9.58;52.00
9462;BME280;4769;42.660;23.262;2023-02-21T04:29:01;94239.97;;;9.72;51.93
9462;BME280;4769;42.660;23.262;2023-02-21T04:31:30;94225.91;;;9.55;52.17
9462;BME280;4769;42.660;23.262;2023-02-21T04:33:57;94221.09;;;9.40;53.79
9462;BME280;4769;42.660;23.262;2023-02-21T04:36:24;94232.72;;;8.75;56.98
9462;BME280;4769;42.660;23.262;2023-02-21T04:38:52;94242.81;;;8.19;59.75
9462;BME280;4769;42.660;23.262;2023-02-21T04:41:19;94262.84;;;7.84;60.82
9462;BME280;4769;42.660;23.262;2023-02-21T04:43:46;94254.84;;;7.61;62.55
9462;BME280;4769;42.660;23.262;2023-02-21T04:46:14;94256.22;;;7.64;62.93
9462;BME280;4769;42.660;23.262;2023-02-21T04:48:43;94265.94;;;7.45;63.30
9462;BME280;4769;42.660;23.262;2023-02-21T04:51:11;94262.97;;;7.35;64.69
9462;BME280;4769;42.660;23.262;2023-02-21T04:53:37;94248.94;;;7.30;64.58
9462;BME280;4769;42.660;23.262;2023-02-21T04:56:05;94244.44;;;7.12;65.14
9462;BME280;4769;42.660;23.262;2023-02-21T04:58:32;94240.22;;;6.87;66.18
9462;BME280;4769;42.660;23.262;2023-02-21T05:00:59;94240.31;;;6.80;66.99
9462;BME280;4769;42.660;23.262;2023-02-21T05:03:25;94226.09;;;7.84;77.67
9462;BME280;4769;42.660;23.262;2023-02-21T05:05:53;94222.00;;;8.06;65.82
9462;BME280;4769;42.660;23.262;2023-02-21T05:08:20;94228.38;;;7.81;64.58
9462;BME280;4769;42.660;23.262;2023-02-21T05:10:48;94217.31;;;7.25;66.46
9462;BME280;4769;42.660;23.262;2023-02-21T05:13:15;94204.84;;;7.20;66.30
9462;BME280;4769;42.660;23.262;2023-02-21T05:15:42;94210.66;;;7.40;63.24
9462;BME280;4769;42.660;23.262;2023-02-21T05:18:09;94234.16;;;8.19;59.39
9462;BME280;4769;42.660;23.262;2023-02-21T05:20:35;94196.03;;;8.57;57.11
9462;BME280;4769;42.660;23.262;2023-02-21T05:23:03;94184.84;;;8.62;56.56
9462;BME280;4769;42.660;23.262;2023-02-21T05:25:30;94194.25;;;8.92;55.58
9462;BME280;4769;42.660;23.262;2023-02-21T05:27:57;94222.13;;;8.82;55.52
9462;BME280;4769;42.660;23.262;2023-02-21T05:30:23;94201.34;;;8.92;55.43
9462;BME280;4769;42.660;23.262;2023-02-21T05:32:50;94186.03;;;9.00;54.93
9462;BME280;4769;42.660;23.262;2023-02-21T05:35:17;94207.06;;;9.12;54.52
9462;BME280;4769;42.660;23.262;2023-02-21T05:37:44;94191.38;;;9.28;53.83
9462;BME280;4769;42.660;23.262;2023-02-21T05:40:12;94205.31;;;9.52;52.79
9462;BME280;4769;42.660;23.262;2023-02-21T05:42:40;94222.88;;;9.86;51.46
9462;BME280;4769;42.660;23.262;2023-02-21T05:45:08;94201.78;;;9.97;51.00
9462;BME280;4769;42.660;23.262;2023-02-21T05:47:35;94220.78;;;9.99;50.57
9462;BME280;4769;42.660;23.262;2023-02-21T05:50:03;94208.75;;;10.03;50.90
9462;BME280;4769;42.660;23.262;2023-02-21T05:52:30;94214.59;;;10.05;50.57
9462;BME280;4769;42.660;23.262;2023-02-21T05:54:57;94224.84;;;10.18;49.96
9462;BME280;4769;42.660;23.262;2023-02-21T05:57:27;94226.66;;;10.29;49.59
9462;BME280;4769;42.660;23.262;2023-02-21T05:59:53;94249.81;;;10.27;49.82
9462;BME280;4769;42.660;23.262;2023-02-21T06:02:20;94241.22;;;10.32;49.37
9462;BME280;4769;42.660;23.262;2023-02-21T06:04:47;94246.13;;;10.28;49.63
9462;BME280;4769;42.660;23.262;2023-02-21T06:07:14;94244.63;;;10.32;49.55
9462;BME280;4769;42.660;23.262;2023-02-21T06:09:41;94233.41;;;10.37;49.79
9462;BME280;4769;42.660;23.262;2023-02-21T06:12:07;94237.75;;;10.31;49.55
9462;BME280;4769;42.660;23.262;2023-02-21T06:14:35;94247.44;;;10.03;51.23
9462;BME280;4769;42.660;23.262;2023-02-21T06:17:02;94249.47;;;9.73;54.61
9462;BME280;4769;42.660;23.262;2023-02-21T06:19:29;94254.84;;;9.66;55.29
9462;BME280;4769;42.660;23.262;2023-02-21T06:21:56;94247.88;;;9.49;56.11
9462;BME280;4769;42.660;23.262;2023-02-21T06:24:22;94246.03;;;9.38;56.47
9462;BME280;4769;42.660;23.262;2023-02-21T06:26:49;94253.94;;;8.92;58.20
9462;BME280;4769;42.660;23.262;2023-02-21T06:29:16;94250.66;;;8.67;59.21
9462;BME280;4769;42.660;23.262;2023-02-21T06:31:44;94262.13;;;8.72;59.08
9462;BME280;4769;42.660;23.262;2023-02-21T06:34:11;94257.09;;;8.41;60.84
9462;BME280;4769;42.660;23.262;2023-02-21T06:36:38;94254.84;;;8.56;60.31
9462;BME280;4769;42.660;23.262;2023-02-21T06:39:05;94253.78;;;8.87;59.65
9462;BME280;4769;42.660;23.262;2023-02-21T06:41:32;94257.94;;;8.94;59.43
9462;BME280;4769;42.660;23.262;2023-02-21T06:43:59;94242.81;;;8.90;59.92
9462;BME280;4769;42.660;23.262;2023-02-21T06:46:28;94260.69;;;8.99;60.03
9462;BME280;4769;42.660;23.262;2023-02-21T06:48:56;94254.28;;;9.07;59.29
9462;BME280;4769;42.660;23.262;2023-02-21T06:51:23;94258.75;;;9.41;55.82
9462;BME280;4769;42.660;23.262;2023-02-21T06:53:54;94239.09;;;9.94;53.21
9462;BME280;4769;42.660;23.262;2023-02-21T06:56:22;94261.25;;;10.33;50.94
9462;BME280;4769;42.660;23.262;2023-02-21T06:58:49;94242.84;;;10.49;52.05
9462;BME280;4769;42.660;23.262;2023-02-21T07:01:16;94259.78;;;10.81;49.49
9462;BME280;4769;42.660;23.262;2023-02-21T07:03:42;94254.03;;;11.17;48.13
9462;BME280;4769;42.660;23.262;2023-02-21T07:06:12;94270.50;;;11.24;47.47
9462;BME280;4769;42.660;23.262;2023-02-21T07:08:39;94249.41;;;11.24;47.20
9462;BME280;4769;42.660;23.262;2023-02-21T07:11:06;94251.53;;;11.44;47.02
9462;BME280;4769;42.660;23.262;2023-02-21T07:13:33;94239.03;;;11.56;46.59
9462;BME280;4769;42.660;23.262;2023-02-21T07:16:00;94255.84;;;11.66;46.07
9462;BME280;4769;42.660;23.262;2023-02-21T07:18:27;94254.25;;;11.65;45.69
9462;BME280;4769;42.660;23.262;2023-02-21T07:20:54;94254.22;;;11.82;45.16
9462;BME280;4769;42.660;23.262;2023-02-21T07:23:22;94248.81;;;11.72;45.43
9462;BME280;4769;42.660;23.262;2023-02-21T07:25:49;94240.47;;;11.63;45.60
9462;BME280;4769;42.660;23.262;2023-02-21T07:28:15;94242.47;;;11.56;46.09
9462;BME280;4769;42.660;23.262;2023-02-21T07:30:42;94244.75;;;11.64;45.87
9462;BME280;4769;42.660;23.262;2023-02-21T07:33:09;94244.09;;;11.95;44.39
9462;BME280;4769;42.660;23.262;2023-02-21T07:35:35;94231.75;;;12.01;44.57
9462;BME280;4769;42.660;23.262;2023-02-21T07:38:02;94245.94;;;12.16;44.69
9462;BME280;4769;42.660;23.262;2023-02-21T07:40:30;94228.28;;;12.22;45.90
9462;BME280;4769;42.660;23.262;2023-02-21T07:42:57;94229.44;;;11.66;47.53
9462;BME280;4769;42.660;23.262;2023-02-21T07:45:24;94225.34;;;11.97;43.85
9462;BME280;4769;42.660;23.262;2023-02-21T07:47:51;94224.88;;;12.00;44.73
9462;BME280;4769;42.660;23.262;2023-02-21T07:50:18;94226.59;;;12.11;44.28
9462;BME280;4769;42.660;23.262;2023-02-21T07:52:47;94223.88;;;12.06;44.24
9462;BME280;4769;42.660;23.262;2023-02-21T07:55:14;94219.81;;;11.98;44.94
9462;BME280;4769;42.660;23.262;2023-02-21T07:57:42;94208.91;;;11.90;45.00
9462;BME280;4769;42.660;23.262;2023-02-21T08:00:10;94202.09;;;11.77;45.18
9462;BME280;4769;42.660;23.262;2023-02-21T08:02:37;94207.84;;;11.91;46.23
9462;BME280;4769;42.660;23.262;2023-02-21T08:05:04;94216.78;;;11.52;46.23
9462;BME280;4769;42.660;23.262;2023-02-21T08:07:31;94196.28;;;11.75;44.81
9462;BME280;4769;42.660;23.262;2023-02-21T08:09:58;94206.97;;;11.85;45.05
9462;BME280;4769;42.660;23.262;2023-02-21T08:12:25;94195.28;;;12.03;42.86
9462;BME280;4769;42.660;23.262;2023-02-21T08:14:53;94205.84;;;12.24;42.09
9462;BME280;4769;42.660;23.262;2023-02-21T08:17:20;94220.75;;;12.09;45.69
9462;BME280;4769;42.660;23.262;2023-02-21T08:19:47;94204.56;;;11.84;47.58
9462;BME280;4769;42.660;23.262;2023-02-21T08:22:13;94219.53;;;11.40;49.57
9462;BME280;4769;42.660;23.262;2023-02-21T08:24:40;94212.34;;;11.36;50.16
9462;BME280;4769;42.660;23.262;2023-02-21T08:27:07;94209.97;;;10.85;51.74
9462;BME280;4769;42.660;23.262;2023-02-21T08:29:33;94208.00;;;10.92;52.06
9462;BME280;4769;42.660;23.262;2023-02-21T08:32:02;94208.38;;;11.17;52.00
9462;BME280;4769;42.660;23.262;2023-02-21T08:34:28;94194.56;;;11.31;51.19
9462;BME280;4769;42.660;23.262;2023-02-21T08:36:55;94210.91;;;11.28;51.48
9462;BME280;4769;42.660;23.262;2023-02-21T08:39:22;94204.66;;;11.34;51.44
9462;BME280;4769;42.660;23.262;2023-02-21T08:41:49;94197.22;;;11.31;51.26
9462;BME280;4769;42.660;23.262;2023-02-21T08:44:17;94196.06;;;11.06;52.44
9462;BME280;4769;42.660;23.262;2023-02-21T08:46:46;94195.34;;;11.10;52.00
9462;BME280;4769;42.660;23.262;2023-02-21T08:49:14;94201.66;;;11.09;52.25
9462;BME280;4769;42.660;23.262;2023-02-21T08:51:41;94204.13;;;11.32;51.84
9462;BME280;4769;42.660;23.262;2023-02-21T08:54:08;94199.34;;;11.67;51.15
9462;BME280;4769;42.660;23.262;2023-02-21T08:56:34;94195.59;;;11.47;50.96
9462;BME280;4769;42.660;23.262;2023-02-21T08:59:01;94188.78;;;11.67;50.48
9462;BME280;4769;42.660;23.262;2023-02-21T09:01:32;94196.47;;;11.52;51.05
9462;BME280;4769;42.660;23.262;2023-02-21T09:03:59;94191.25;;;11.74;50.65
9462;BME280;4769;42.660;23.262;2023-02-21T09:06:27;94198.81;;;11.87;50.15
9462;BME280;4769;42.660;23.262;2023-02-21T09:08:54;94193.66;;;11.97;49.55
9462;BME280;4769;42.660;23.262;2023-02-21T09:11:21;94187.94;;;12.05;49.85
9462;BME280;4769;42.660;23.262;2023-02-21T09:13:48;94184.00;;;11.86;49.83
9462;BME280;4769;42.660;23.262;2023-02-21T09:16:15;94189.88;;;11.93;50.63
9462;BME280;4769;42.660;23.262;2023-02-21T09:18:41;94186.28;;;12.47;49.57
9462;BME280;4769;42.660;23.262;2023-02-21T09:21:08;94188.19;;;12.83;48.00
9462;BME280;4769;42.660;23.262;2023-02-21T09:23:36;94169.78;;;12.66;48.30
9462;BME280;4769;42.660;23.262;2023-02-21T09:26:03;94183.16;;;13.13;47.12
9462;BME280;4769;42.660;23.262;2023-02-21T09:28:30;94186.31;;;13.46;45.48
9462;BME280;4769;42.660;23.262;2023-02-21T09:30:56;94178.97;;;13.63;46.12
9462;BME280;4769;42.660;23.262;2023-02-21T09:33:23;94168.69;;;13.67;44.57
9462;BME280;4769;42.660;23.262;2023-02-21T09:35:50;94156.16;;;14.19;44.29
9462;BME280;4769;42.660;23.262;2023-02-21T09:38:18;94155.72;;;14.42;42.50
9462;BME280;4769;42.660;23.262;2023-02-21T09:40:48;94154.72;;;14.88;42.49
9462;BME280;4769;42.660;23.262;2023-02-21T09:43:22;94147.28;;;15.40;40.70
9462;BME280;4769;42.660;23.262;2023-02-21T09:45:53;94145.56;;;15.84;40.00
9462;BME280;4769;42.660;23.262;2023-02-21T09:48:22;94149.84;;;16.34;38.76
9462;BME280;4769;42.660;23.262;2023-02-21T09:50:51;94137.75;;;16.61;37.48
9462;BME280;4769;42.660;23.262;2023-02-21T09:53:23;94142.50;;;16.64;36.88
9462;BME280;4769;42.660;23.262;2023-02-21T09:55:54;94136.03;;;16.80;36.71
9462;BME280;4769;42.660;23.262;2023-02-21T09:58:22;94127.50;;;17.12;35.98
9462;BME280;4769;42.660;23.262;2023-02-21T10:00:49;94138.63;;;17.52;35.37
9462;BME280;4769;42.660;23.262;2023-02-21T10:03:28;94126.84;;;17.58;33.58
9462;BME280;4769;42.660;23.262;2023-02-21T10:06:09;94128.94;;;17.33;28.53
9462;BME280;4769;42.660;23.262;2023-02-21T10:08:44;94111.34;;;17.60;27.40
9462;BME280;4769;42.660;23.262;2023-02-21T10:11:28;94108.66;;;17.32;26.10
9462;BME280;4769;42.660;23.262;2023-02-21T10:14:07;94106.41;;;17.15;26.39
9462;BME280;4769;42.660;23.262;2023-02-21T10:16:44;94101.78;;;17.26;25.64
9462;BME280;4769;42.660;23.262;2023-02-21T10:19:15;94094.47;;;17.41;25.44
9462;BME280;4769;42.660;23.262;2023-02-21T10:21:46;94103.09;;;17.28;25.44
9462;BME280;4769;42.660;23.262;2023-02-21T10:24:16;94085.94;;;17.44;25.73
9462;BME280;4769;42.660;23.262;2023-02-21T10:26:51;94085.81;;;17.54;25.86
9462;BME280;4769;42.660;23.262;2023-02-21T10:29:21;94093.75;;;17.59;26.09
9462;BME280;4769;42.660;23.262;2023-02-21T10:31:51;94093.06;;;17.49;26.33
9462;BME280;4769;42.660;23.262;2023-02-21T10:34:24;94079.50;;;17.69;26.96
9462;BME280;4769;42.660;23.262;2023-02-21T10:36:53;94064.34;;;17.88;26.38
9462;BME280;4769;42.660;23.262;2023-02-21T10:39:24;94077.03;;;17.96;26.45
9462;BME280;4769;42.660;23.262;2023-02-21T10:41:57;94082.91;;;17.98;25.95
9462;BME280;4769;42.660;23.262;2023-02-21T10:44:28;94070.28;;;18.03;26.49
9462;BME280;4769;42.660;23.262;2023-02-21T10:47:01;94069.84;;;18.15;26.53
9462;BME280;4769;42.660;23.262;2023-02-21T10:49:32;94060.94;;;18.24;26.62
9462;BME280;4769;42.660;23.262;2023-02-21T10:52:06;94056.81;;;18.32;26.21
9462;BME280;4769;42.660;23.262;2023-02-21T10:54:34;94047.41;;;18.39;26.15
9462;BME280;4769;42.660;23.262;2023-02-21T10:57:05;94042.88;;;19.04;25.70
9462;BME280;4769;42.660;23.262;2023-02-21T10:59:34;94042.31;;;18.19;25.21
9462;BME280;4769;42.660;23.262;2023-02-21T11:04:51;94022.59;;;18.71;25.26
9462;BME280;4769;42.660;23.262;2023-02-21T11:07:19;94031.31;;;18.44;25.76
9462;BME280;4769;42.660;23.262;2023-02-21T11:09:48;94017.09;;;18.49;26.09
9462;BME280;4769;42.660;23.262;2023-02-21T11:12:22;94013.81;;;19.16;25.28
9462;BME280;4769;42.660;23.262;2023-02-21T11:17:45;94009.13;;;18.94;25.13
9462;BME280;4769;42.660;23.262;2023-02-21T11:20:27;94030.19;;;18.96;25.47
9462;BME280;4769;42.660;23.262;2023-02-21T11:22:54;94011.34;;;18.87;25.27
9462;BME280;4769;42.660;23.262;2023-02-21T11:25:24;94004.06;;;18.93;25.67
9462;BME280;4769;42.660;23.262;2023-02-21T11:28:02;93991.84;;;19.19;25.76
9462;BME280;4769;42.660;23.262;2023-02-21T11:30:31;93987.81;;;19.62;25.26
9462;BME280;4769;42.660;23.262;2023-02-21T11:33:01;93984.16;;;20.20;24.68
9462;BME280;4769;42.660;23.262;2023-02-21T11:35:32;93975.72;;;20.13;24.32
9462;BME280;4769;42.660;23.262;2023-02-21T11:38:02;93978.53;;;19.95;24.38
9462;BME280;4769;42.660;23.262;2023-02-21T11:40:33;93972.84;;;19.47;24.94
9462;BME280;4769;42.660;23.262;2023-02-21T11:43:20;93970.13;;;19.20;25.32
9462;BME280;4769;42.660;23.262;2023-02-21T11:46:11;93952.38;;;19.43;25.36
9462;BME280;4769;42.660;23.262;2023-02-21T11:48:46;93964.75;;;19.88;24.89
9462;BME280;4769;42.660;23.262;2023-02-21T11:51:22;93956.59;;;20.20;24.61
9462;BME280;4769;42.660;23.262;2023-02-21T11:53:51;93961.25;;;20.50;24.18
9462;BME280;4769;42.660;23.262;2023-02-21T11:56:26;93947.34;;;20.26;24.20
9462;BME280;4769;42.660;23.262;2023-02-21T11:59:02;93950.38;;;20.33;24.38
9462;BME280;4769;42.660;23.262;2023-02-21T12:01:37;93946.91;;;20.32;24.54
9462;BME280;4769;42.660;23.262;2023-02-21T12:04:29;93939.25;;;20.61;24.29
9462;BME280;4769;42.660;23.262;2023-02-21T12:07:01;93930.28;;;20.44;24.33
9462;BME280;4769;42.660;23.262;2023-02-21T12:09:34;93931.09;;;20.66;24.34
9462;BME280;4769;42.660;23.262;2023-02-21T12:12:15;93919.81;;;21.08;23.96
9462;BME280;4769;42.660;23.262;2023-02-21T12:15:07;93921.34;;;20.26;24.71
9462;BME280;4769;42.660;23.262;2023-02-21T12:17:48;93920.78;;;20.16;24.93
9462;BME280;4769;42.660;23.262;2023-02-21T12:20:24;93913.03;;;19.57;25.55
9462;BME280;4769;42.660;23.262;2023-02-21T12:23:08;93906.88;;;19.70;25.55
9462;BME280;4769;42.660;23.262;2023-02-21T12:25:48;93900.59;;;20.54;24.77
9462;BME280;4769;42.660;23.262;2023-02-21T12:28:25;93890.25;;;19.81;25.28
9462;BME280;4769;42.660;23.262;2023-02-21T12:31:10;93905.06;;;20.01;25.45
9462;BME280;4769;42.660;23.262;2023-02-21T12:33:44;93905.06;;;19.65;25.86
9462;BME280;4769;42.660;23.262;2023-02-21T12:36:39;93912.56;;;19.77;25.96
9462;BME280;4769;42.660;23.262;2023-02-21T12:39:24;93897.31;;;19.28;26.13
9462;BME280;4769;42.660;23.262;2023-02-21T12:42:06;93887.00;;;19.35;26.48
9462;BME280;4769;42.660;23.262;2023-02-21T12:44:44;93888.38;;;18.92;27.06
9462;BME280;4769;42.660;23.262;2023-02-21T12:47:21;93881.59;;;18.54;27.06
9462;BME280;4769;42.660;23.262;2023-02-21T12:49:53;93882.47;;;18.36;27.57
9462;BME280;4769;42.660;23.262;2023-02-21T12:52:26;93883.75;;;18.84;26.94
9462;BME280;4769;42.660;23.262;2023-02-21T12:54:59;93878.38;;;19.11;27.05
9462;BME280;4769;42.660;23.262;2023-02-21T12:57:30;93883.44;;;19.75;25.95
9462;BME280;4769;42.660;23.262;2023-02-21T13:00:02;93882.69;;;19.61;25.88
9462;BME280;4769;42.660;23.262;2023-02-21T13:02:39;93869.53;;;20.83;25.29
9462;BME280;4769;42.660;23.262;2023-02-21T13:05:12;93874.03;;;20.96;24.39
9462;BME280;4769;42.660;23.262;2023-02-21T13:07:43;93874.88;;;21.14;24.12
9462;BME280;4769;42.660;23.262;2023-02-21T13:10:16;93875.91;;;21.35;24.23
9462;BME280;4769;42.660;23.262;2023-02-21T13:12:49;93859.91;;;21.77;22.81
9462;BME280;4769;42.660;23.262;2023-02-21T13:15:21;93857.19;;;22.20;23.36
9462;BME280;4769;42.660;23.262;2023-02-21T13:17:56;93861.16;;;22.14;22.53
9462;BME280;4769;42.660;23.262;2023-02-21T13:20:26;93846.09;;;22.64;22.37
9462;BME280;4769;42.660;23.262;2023-02-21T13:26:21;93840.63;;;22.01;22.46
9462;BME280;4769;42.660;23.262;2023-02-21T13:28:52;93846.75;;;21.59;22.49
9462;BME280;4769;42.660;23.262;2023-02-21T13:31:21;93835.31;;;21.28;22.67
9462;BME280;4769;42.660;23.262;2023-02-21T13:33:51;93833.19;;;22.15;21.73
9462;BME280;4769;42.660;23.262;2023-02-21T13:36:25;93826.91;;;23.20;21.42
9462;BME280;4769;42.660;23.262;2023-02-21T13:39:04;93824.03;;;24.28;20.12
9462;BME280;4769;42.660;23.262;2023-02-21T13:41:38;93827.31;;;24.01;20.10
9462;BME280;4769;42.660;23.262;2023-02-21T13:44:08;93830.03;;;23.51;20.42
9462;BME280;4769;42.660;23.262;2023-02-21T13:46:59;93813.31;;;21.82;22.05
9462;BME280;4769;42.660;23.262;2023-02-21T13:55:26;93807.94;;;21.90;22.12
9462;BME280;4769;42.660;23.262;2023-02-21T14:07:41;93813.69;;;22.52;21.61
9462;BME280;4769;42.660;23.262;2023-02-21T14:10:20;93814.31;;;22.57;21.86
9462;BME280;4769;42.660;23.262;2023-02-21T14:12:53;93807.06;;;22.49;21.54
9462;BME280;4769;42.660;23.262;2023-02-21T14:15:21;93809.19;;;22.10;21.89
9462;BME280;4769;42.660;23.262;2023-02-21T14:17:50;93807.78;;;21.87;21.96
9462;BME280;4769;42.660;23.262;2023-02-21T14:20:19;93809.84;;;21.90;22.13